sensor_id;sensor_type;location;lat;lon;timestamp;P1;durP1;ratioP1;P2;durP2;ratioP2
29902;SDS011;30288;50.514;9.678;2022-12-24T00:01:05;17.27;;;2.38;;
29902;SDS011;30288;50.514;9.678;2022-12-24T00:03:10;13.43;;;2.28;;
29902;SDS011;30288;50.514;9.678;2022-12-24T00:05:18;9.70;;;2.40;;
29902;SDS011;30288;50.514;9.678;2022-12-24T00:07:23;10.80;;;2.45;;
29902;SDS011;30288;50.514;9.678;2022-12-24T00:09:28;11.25;;;2.63;;
29902;SDS011;30288;50.514;9.678;2022-12-24T00:11:33;14.25;;;2.97;;
29902;SDS011;30288;50.514;9.678;2022-12-24T00:13:38;12.07;;;2.08;;
29902;SDS011;30288;50.514;9.678;2022-12-24T00:15:43;16.38;;;2.22;;
29902;SDS011;30288;50.514;9.678;2022-12-24T00:17:49;15.55;;;2.95;;
29902;SDS011;30288;50.514;9.678;2022-12-24T00:19:54;17.25;;;2.25;;
29902;SDS011;30288;50.514;9.678;2022-12-24T00:22:02;13.18;;;2.38;;
29902;SDS011;30288;50.514;9.678;2022-12-24T00:24:07;13.48;;;2.70;;
29902;SDS011;30288;50.514;9.678;2022-12-24T00:26:13;11.88;;;1.92;;
29902;SDS011;30288;50.514;9.678;2022-12-24T00:28:18;15.63;;;2.80;;
29902;SDS011;30288;50.514;9.678;2022-12-24T00:30:23;20.55;;;2.35;;
29902;SDS011;30288;50.514;9.678;2022-12-24T00:32:29;15.13;;;2.20;;
29902;SDS011;30288;50.514;9.678;2022-12-24T00:34:34;14.10;;;1.98;;
29902;SDS011;30288;50.514;9.678;2022-12-24T00:36:39;13.55;;;1.80;;
29902;SDS011;30288;50.514;9.678;2022-12-24T00:38:47;16.10;;;2.42;;
29902;SDS011;30288;50.514;9.678;2022-12-24T00:40:56;16.10;;;2.28;;
29902;SDS011;30288;50.514;9.678;2022-12-24T00:43:03;13.23;;;2.65;;
29902;SDS011;30288;50.514;9.678;2022-12-24T00:45:09;12.10;;;2.85;;
29902;SDS011;30288;50.514;9.678;2022-12-24T00:47:15;16.98;;;2.28;;
29902;SDS011;30288;50.514;9.678;2022-12-24T00:49:20;11.20;;;2.17;;
29902;SDS011;30288;50.514;9.678;2022-12-24T00:51:25;12.40;;;2.13;;
29902;SDS011;30288;50.514;9.678;2022-12-24T00:53:30;11.60;;;2.35;;
29902;SDS011;30288;50.514;9.678;2022-12-24T00:55:38;18.08;;;2.58;;
29902;SDS011;30288;50.514;9.678;2022-12-24T00:57:44;14.90;;;2.28;;
29902;SDS011;30288;50.514;9.678;2022-12-24T00:59:49;11.43;;;2.42;;
29902;SDS011;30288;50.514;9.678;2022-12-24T01:01:54;9.93;;;2.00;;
29902;SDS011;30288;50.514;9.678;2022-12-24T01:03:59;14.15;;;2.25;;
29902;SDS011;30288;50.514;9.678;2022-12-24T01:06:18;14.07;;;2.33;;
29902;SDS011;30288;50.514;9.678;2022-12-24T01:08:25;12.80;;;2.13;;
29902;SDS011;30288;50.514;9.678;2022-12-24T01:10:30;11.35;;;2.00;;
29902;SDS011;30288;50.514;9.678;2022-12-24T01:12:38;16.30;;;2.20;;
29902;SDS011;30288;50.514;9.678;2022-12-24T01:14:43;9.95;;;1.65;;
29902;SDS011;30288;50.514;9.678;2022-12-24T01:16:48;14.70;;;1.80;;
29902;SDS011;30288;50.514;9.678;2022-12-24T01:18:54;11.85;;;1.92;;
29902;SDS011;30288;50.514;9.678;2022-12-24T01:21:00;10.38;;;2.00;;
29902;SDS011;30288;50.514;9.678;2022-12-24T01:23:07;10.93;;;3.03;;
29902;SDS011;30288;50.514;9.678;2022-12-24T01:25:13;9.70;;;2.03;;
29902;SDS011;30288;50.514;9.678;2022-12-24T01:27:18;15.68;;;2.60;;
29902;SDS011;30288;50.514;9.678;2022-12-24T01:29:26;14.23;;;2.00;;
29902;SDS011;30288;50.514;9.678;2022-12-24T01:31:31;9.23;;;2.03;;
29902;SDS011;30288;50.514;9.678;2022-12-24T01:33:37;15.73;;;1.75;;
29902;SDS011;30288;50.514;9.678;2022-12-24T01:35:42;11.35;;;2.33;;
29902;SDS011;30288;50.514;9.678;2022-12-24T01:37:48;10.27;;;1.55;;
29902;SDS011;30288;50.514;9.678;2022-12-24T01:39:53;12.10;;;1.83;;
29902;SDS011;30288;50.514;9.678;2022-12-24T01:42:20;10.70;;;1.77;;
29902;SDS011;30288;50.514;9.678;2022-12-24T01:44:43;12.63;;;1.73;;
29902;SDS011;30288;50.514;9.678;2022-12-24T01:46:52;10.52;;;1.73;;
29902;SDS011;30288;50.514;9.678;2022-12-24T01:49:07;18.58;;;3.10;;
29902;SDS011;30288;50.514;9.678;2022-12-24T01:51:16;9.07;;;1.77;;
29902;SDS011;30288;50.514;9.678;2022-12-24T01:53:28;9.27;;;1.90;;
29902;SDS011;30288;50.514;9.678;2022-12-24T01:55:38;12.45;;;1.75;;
29902;SDS011;30288;50.514;9.678;2022-12-24T01:57:45;12.75;;;2.00;;
29902;SDS011;30288;50.514;9.678;2022-12-24T01:59:59;9.18;;;1.45;;
29902;SDS011;30288;50.514;9.678;2022-12-24T02:02:14;9.70;;;2.58;;
29902;SDS011;30288;50.514;9.678;2022-12-24T02:04:23;15.60;;;3.13;;
29902;SDS011;30288;50.514;9.678;2022-12-24T02:06:35;11.73;;;1.50;;
29902;SDS011;30288;50.514;9.678;2022-12-24T02:08:41;12.50;;;1.60;;
29902;SDS011;30288;50.514;9.678;2022-12-24T02:10:46;12.48;;;2.58;;
29902;SDS011;30288;50.514;9.678;2022-12-24T02:12:52;18.00;;;2.63;;
29902;SDS011;30288;50.514;9.678;2022-12-24T02:15:01;8.25;;;1.50;;
29902;SDS011;30288;50.514;9.678;2022-12-24T02:17:09;12.05;;;2.33;;
29902;SDS011;30288;50.514;9.678;2022-12-24T02:22:45;13.65;;;2.15;;
29902;SDS011;30288;50.514;9.678;2022-12-24T02:25:22;12.43;;;1.58;;
29902;SDS011;30288;50.514;9.678;2022-12-24T02:27:44;9.32;;;1.60;;
29902;SDS011;30288;50.514;9.678;2022-12-24T02:30:05;13.93;;;1.80;;
29902;SDS011;30288;50.514;9.678;2022-12-24T02:32:23;11.77;;;1.90;;
29902;SDS011;30288;50.514;9.678;2022-12-24T02:34:34;11.43;;;1.77;;
29902;SDS011;30288;50.514;9.678;2022-12-24T02:36:45;10.00;;;2.75;;
29902;SDS011;30288;50.514;9.678;2022-12-24T02:38:59;17.58;;;2.70;;
29902;SDS011;30288;50.514;9.678;2022-12-24T02:41:10;8.73;;;1.67;;
29902;SDS011;30288;50.514;9.678;2022-12-24T02:43:25;13.70;;;2.15;;
29902;SDS011;30288;50.514;9.678;2022-12-24T02:45:39;6.80;;;1.33;;
29902;SDS011;30288;50.514;9.678;2022-12-24T02:47:55;12.25;;;1.77;;
29902;SDS011;30288;50.514;9.678;2022-12-24T02:50:01;12.40;;;1.85;;
29902;SDS011;30288;50.514;9.678;2022-12-24T02:54:34;13.40;;;2.08;;
29902;SDS011;30288;50.514;9.678;2022-12-24T02:56:46;10.32;;;2.30;;
29902;SDS011;30288;50.514;9.678;2022-12-24T03:02:07;11.48;;;2.15;;
29902;SDS011;30288;50.514;9.678;2022-12-24T03:04:23;15.82;;;1.98;;
29902;SDS011;30288;50.514;9.678;2022-12-24T03:06:49;11.15;;;1.90;;
29902;SDS011;30288;50.514;9.678;2022-12-24T03:11:10;17.38;;;2.78;;
29902;SDS011;30288;50.514;9.678;2022-12-24T03:13:17;8.93;;;2.20;;
29902;SDS011;30288;50.514;9.678;2022-12-24T03:15:25;10.00;;;1.80;;
29902;SDS011;30288;50.514;9.678;2022-12-24T03:17:36;21.85;;;2.88;;
29902;SDS011;30288;50.514;9.678;2022-12-24T03:19:43;11.85;;;2.22;;
29902;SDS011;30288;50.514;9.678;2022-12-24T03:21:50;10.55;;;2.13;;
29902;SDS011;30288;50.514;9.678;2022-12-24T03:23:58;14.10;;;1.92;;
29902;SDS011;30288;50.514;9.678;2022-12-24T03:26:04;13.65;;;3.08;;
29902;SDS011;30288;50.514;9.678;2022-12-24T03:28:14;16.98;;;2.42;;
29902;SDS011;30288;50.514;9.678;2022-12-24T03:30:22;15.02;;;2.35;;
29902;SDS011;30288;50.514;9.678;2022-12-24T03:32:29;13.52;;;2.28;;
29902;SDS011;30288;50.514;9.678;2022-12-24T03:34:38;15.70;;;2.13;;
29902;SDS011;30288;50.514;9.678;2022-12-24T03:36:43;13.23;;;2.17;;
29902;SDS011;30288;50.514;9.678;2022-12-24T03:38:50;12.95;;;2.33;;
29902;SDS011;30288;50.514;9.678;2022-12-24T03:40:56;16.20;;;1.92;;
29902;SDS011;30288;50.514;9.678;2022-12-24T03:43:01;11.85;;;1.98;;
29902;SDS011;30288;50.514;9.678;2022-12-24T03:45:07;11.02;;;2.35;;
29902;SDS011;30288;50.514;9.678;2022-12-24T03:47:13;12.70;;;2.50;;
29902;SDS011;30288;50.514;9.678;2022-12-24T03:49:19;15.15;;;2.60;;
29902;SDS011;30288;50.514;9.678;2022-12-24T03:51:27;11.68;;;1.95;;
29902;SDS011;30288;50.514;9.678;2022-12-24T03:53:33;20.88;;;2.80;;
29902;SDS011;30288;50.514;9.678;2022-12-24T03:55:39;17.02;;;2.88;;
29902;SDS011;30288;50.514;9.678;2022-12-24T03:57:44;18.83;;;2.75;;
29902;SDS011;30288;50.514;9.678;2022-12-24T03:59:50;16.50;;;2.45;;
29902;SDS011;30288;50.514;9.678;2022-12-24T04:01:55;17.50;;;2.40;;
29902;SDS011;30288;50.514;9.678;2022-12-24T04:04:01;15.50;;;2.60;;
29902;SDS011;30288;50.514;9.678;2022-12-24T04:06:06;15.55;;;2.60;;
29902;SDS011;30288;50.514;9.678;2022-12-24T04:08:16;15.88;;;2.80;;
29902;SDS011;30288;50.514;9.678;2022-12-24T04:10:21;15.15;;;2.28;;
29902;SDS011;30288;50.514;9.678;2022-12-24T04:12:26;14.65;;;2.95;;
29902;SDS011;30288;50.514;9.678;2022-12-24T04:14:32;15.02;;;2.75;;
29902;SDS011;30288;50.514;9.678;2022-12-24T04:16:37;19.15;;;2.35;;
29902;SDS011;30288;50.514;9.678;2022-12-24T04:18:42;16.52;;;2.53;;
29902;SDS011;30288;50.514;9.678;2022-12-24T04:20:48;15.85;;;4.28;;
29902;SDS011;30288;50.514;9.678;2022-12-24T04:22:53;20.48;;;2.97;;
29902;SDS011;30288;50.514;9.678;2022-12-24T04:25:01;19.40;;;2.38;;
29902;SDS011;30288;50.514;9.678;2022-12-24T04:27:06;14.07;;;2.75;;
29902;SDS011;30288;50.514;9.678;2022-12-24T04:29:11;17.67;;;2.70;;
29902;SDS011;30288;50.514;9.678;2022-12-24T04:31:17;16.80;;;3.15;;
29902;SDS011;30288;50.514;9.678;2022-12-24T04:33:22;19.15;;;3.75;;
29902;SDS011;30288;50.514;9.678;2022-12-24T04:35:27;15.02;;;2.63;;
29902;SDS011;30288;50.514;9.678;2022-12-24T04:37:32;17.45;;;3.95;;
29902;SDS011;30288;50.514;9.678;2022-12-24T04:39:38;11.63;;;2.20;;
29902;SDS011;30288;50.514;9.678;2022-12-24T04:41:46;15.82;;;2.60;;
29902;SDS011;30288;50.514;9.678;2022-12-24T04:43:51;18.90;;;2.83;;
29902;SDS011;30288;50.514;9.678;2022-12-24T04:46:02;25.13;;;3.55;;
29902;SDS011;30288;50.514;9.678;2022-12-24T04:48:09;15.88;;;2.80;;
29902;SDS011;30288;50.514;9.678;2022-12-24T04:50:14;13.43;;;2.33;;
29902;SDS011;30288;50.514;9.678;2022-12-24T04:52:19;17.40;;;2.40;;
29902;SDS011;30288;50.514;9.678;2022-12-24T04:54:25;14.55;;;2.05;;
29902;SDS011;30288;50.514;9.678;2022-12-24T04:56:30;15.10;;;3.63;;
29902;SDS011;30288;50.514;9.678;2022-12-24T04:58:39;21.58;;;2.67;;
29902;SDS011;30288;50.514;9.678;2022-12-24T05:00:44;15.10;;;2.83;;
29902;SDS011;30288;50.514;9.678;2022-12-24T05:02:49;16.50;;;3.00;;
29902;SDS011;30288;50.514;9.678;2022-12-24T05:04:55;15.48;;;2.92;;
29902;SDS011;30288;50.514;9.678;2022-12-24T05:07:00;9.18;;;1.80;;
29902;SDS011;30288;50.514;9.678;2022-12-24T05:09:05;19.02;;;2.85;;
29902;SDS011;30288;50.514;9.678;2022-12-24T05:11:10;14.50;;;2.63;;
29902;SDS011;30288;50.514;9.678;2022-12-24T05:13:16;17.55;;;2.67;;
29902;SDS011;30288;50.514;9.678;2022-12-24T05:15:24;14.23;;;2.35;;
29902;SDS011;30288;50.514;9.678;2022-12-24T05:17:29;14.68;;;2.40;;
29902;SDS011;30288;50.514;9.678;2022-12-24T05:19:34;14.88;;;2.42;;
29902;SDS011;30288;50.514;9.678;2022-12-24T05:21:39;15.48;;;2.50;;
29902;SDS011;30288;50.514;9.678;2022-12-24T05:23:44;19.00;;;3.17;;
29902;SDS011;30288;50.514;9.678;2022-12-24T05:26:02;20.13;;;2.88;;
29902;SDS011;30288;50.514;9.678;2022-12-24T05:28:24;19.25;;;2.53;;
29902;SDS011;30288;50.514;9.678;2022-12-24T05:30:32;11.10;;;2.50;;
29902;SDS011;30288;50.514;9.678;2022-12-24T05:32:37;19.98;;;2.92;;
29902;SDS011;30288;50.514;9.678;2022-12-24T05:34:42;14.55;;;2.50;;
29902;SDS011;30288;50.514;9.678;2022-12-24T05:36:47;16.02;;;2.85;;
29902;SDS011;30288;50.514;9.678;2022-12-24T05:38:52;13.77;;;2.60;;
29902;SDS011;30288;50.514;9.678;2022-12-24T05:40:57;20.80;;;3.25;;
29902;SDS011;30288;50.514;9.678;2022-12-24T05:43:02;15.23;;;2.70;;
29902;SDS011;30288;50.514;9.678;2022-12-24T05:45:08;17.23;;;2.78;;
29902;SDS011;30288;50.514;9.678;2022-12-24T05:47:16;17.67;;;2.70;;
29902;SDS011;30288;50.514;9.678;2022-12-24T05:49:21;18.88;;;3.13;;
29902;SDS011;30288;50.514;9.678;2022-12-24T05:51:26;15.40;;;2.58;;
29902;SDS011;30288;50.514;9.678;2022-12-24T05:53:31;13.93;;;2.53;;
29902;SDS011;30288;50.514;9.678;2022-12-24T05:55:37;16.63;;;3.35;;
29902;SDS011;30288;50.514;9.678;2022-12-24T05:57:42;14.95;;;2.72;;
29902;SDS011;30288;50.514;9.678;2022-12-24T05:59:47;18.77;;;3.05;;
29902;SDS011;30288;50.514;9.678;2022-12-24T06:01:52;18.60;;;2.67;;
29902;SDS011;30288;50.514;9.678;2022-12-24T06:04:01;17.92;;;2.80;;
29902;SDS011;30288;50.514;9.678;2022-12-24T06:06:06;16.60;;;2.97;;
29902;SDS011;30288;50.514;9.678;2022-12-24T06:08:14;15.02;;;2.65;;
29902;SDS011;30288;50.514;9.678;2022-12-24T06:10:19;18.98;;;2.67;;
29902;SDS011;30288;50.514;9.678;2022-12-24T06:12:24;16.85;;;3.70;;
29902;SDS011;30288;50.514;9.678;2022-12-24T06:14:29;18.58;;;3.15;;
29902;SDS011;30288;50.514;9.678;2022-12-24T06:16:35;18.85;;;3.08;;
29902;SDS011;30288;50.514;9.678;2022-12-24T06:18:40;14.90;;;2.97;;
29902;SDS011;30288;50.514;9.678;2022-12-24T06:20:51;19.60;;;3.15;;
29902;SDS011;30288;50.514;9.678;2022-12-24T06:22:57;22.38;;;3.38;;
29902;SDS011;30288;50.514;9.678;2022-12-24T06:25:02;16.92;;;3.83;;
29902;SDS011;30288;50.514;9.678;2022-12-24T06:27:08;25.15;;;3.63;;
29902;SDS011;30288;50.514;9.678;2022-12-24T06:29:12;27.50;;;3.60;;
29902;SDS011;30288;50.514;9.678;2022-12-24T06:31:18;17.17;;;3.88;;
29902;SDS011;30288;50.514;9.678;2022-12-24T06:33:25;11.65;;;2.50;;
29902;SDS011;30288;50.514;9.678;2022-12-24T06:35:30;16.25;;;3.60;;
29902;SDS011;30288;50.514;9.678;2022-12-24T06:37:38;21.77;;;2.97;;
29902;SDS011;30288;50.514;9.678;2022-12-24T06:39:43;12.68;;;2.50;;
29902;SDS011;30288;50.514;9.678;2022-12-24T06:41:49;11.88;;;3.72;;
29902;SDS011;30288;50.514;9.678;2022-12-24T06:43:54;15.05;;;3.22;;
29902;SDS011;30288;50.514;9.678;2022-12-24T06:46:00;21.70;;;2.88;;
29902;SDS011;30288;50.514;9.678;2022-12-24T06:48:06;21.40;;;2.60;;
29902;SDS011;30288;50.514;9.678;2022-12-24T06:50:12;18.75;;;2.85;;
29902;SDS011;30288;50.514;9.678;2022-12-24T06:52:17;13.48;;;3.20;;
29902;SDS011;30288;50.514;9.678;2022-12-24T06:54:25;14.32;;;2.33;;
29902;SDS011;30288;50.514;9.678;2022-12-24T06:56:30;17.83;;;3.13;;
29902;SDS011;30288;50.514;9.678;2022-12-24T06:58:35;13.20;;;2.70;;
29902;SDS011;30288;50.514;9.678;2022-12-24T07:00:41;22.08;;;3.30;;
29902;SDS011;30288;50.514;9.678;2022-12-24T07:02:46;20.13;;;3.20;;
29902;SDS011;30288;50.514;9.678;2022-12-24T07:04:51;16.48;;;4.70;;
29902;SDS011;30288;50.514;9.678;2022-12-24T07:06:57;15.90;;;2.90;;
29902;SDS011;30288;50.514;9.678;2022-12-24T07:09:02;18.92;;;3.50;;
29902;SDS011;30288;50.514;9.678;2022-12-24T07:11:10;16.98;;;3.45;;
29902;SDS011;30288;50.514;9.678;2022-12-24T07:13:15;18.50;;;3.17;;
29902;SDS011;30288;50.514;9.678;2022-12-24T07:15:20;18.08;;;3.90;;
29902;SDS011;30288;50.514;9.678;2022-12-24T07:17:25;23.85;;;3.35;;
29902;SDS011;30288;50.514;9.678;2022-12-24T07:19:31;23.55;;;3.40;;
29902;SDS011;30288;50.514;9.678;2022-12-24T07:21:36;23.23;;;4.25;;
29902;SDS011;30288;50.514;9.678;2022-12-24T07:23:41;14.68;;;3.03;;
29902;SDS011;30288;50.514;9.678;2022-12-24T07:25:46;17.85;;;3.92;;
29902;SDS011;30288;50.514;9.678;2022-12-24T07:27:54;22.08;;;3.65;;
29902;SDS011;30288;50.514;9.678;2022-12-24T07:29:59;22.85;;;3.60;;
29902;SDS011;30288;50.514;9.678;2022-12-24T07:32:04;21.35;;;3.38;;
29902;SDS011;30288;50.514;9.678;2022-12-24T07:34:09;17.13;;;3.53;;
29902;SDS011;30288;50.514;9.678;2022-12-24T07:36:16;18.98;;;3.72;;
29902;SDS011;30288;50.514;9.678;2022-12-24T07:38:24;15.60;;;3.58;;
29902;SDS011;30288;50.514;9.678;2022-12-24T07:40:29;23.83;;;4.13;;
29902;SDS011;30288;50.514;9.678;2022-12-24T07:42:36;21.85;;;3.88;;
29902;SDS011;30288;50.514;9.678;2022-12-24T07:44:47;19.00;;;3.30;;
29902;SDS011;30288;50.514;9.678;2022-12-24T07:46:52;23.63;;;4.38;;
29902;SDS011;30288;50.514;9.678;2022-12-24T07:48:57;14.43;;;4.13;;
29902;SDS011;30288;50.514;9.678;2022-12-24T07:51:02;15.80;;;3.22;;
29902;SDS011;30288;50.514;9.678;2022-12-24T07:53:08;21.88;;;5.30;;
29902;SDS011;30288;50.514;9.678;2022-12-24T07:55:12;24.13;;;4.75;;
29902;SDS011;30288;50.514;9.678;2022-12-24T07:57:18;20.13;;;6.05;;
29902;SDS011;30288;50.514;9.678;2022-12-24T07:59:23;28.98;;;6.68;;
29902;SDS011;30288;50.514;9.678;2022-12-24T08:01:31;24.20;;;5.10;;
29902;SDS011;30288;50.514;9.678;2022-12-24T08:03:36;22.55;;;6.47;;
29902;SDS011;30288;50.514;9.678;2022-12-24T08:05:41;19.35;;;5.32;;
29902;SDS011;30288;50.514;9.678;2022-12-24T08:07:47;35.60;;;9.45;;
29902;SDS011;30288;50.514;9.678;2022-12-24T08:09:52;19.83;;;3.80;;
29902;SDS011;30288;50.514;9.678;2022-12-24T08:11:57;21.60;;;3.65;;
29902;SDS011;30288;50.514;9.678;2022-12-24T08:14:02;19.05;;;4.22;;
29902;SDS011;30288;50.514;9.678;2022-12-24T08:16:07;17.30;;;3.30;;
29902;SDS011;30288;50.514;9.678;2022-12-24T08:18:15;18.92;;;3.70;;
29902;SDS011;30288;50.514;9.678;2022-12-24T08:20:20;19.48;;;4.05;;
29902;SDS011;30288;50.514;9.678;2022-12-24T08:22:26;26.58;;;3.80;;
29902;SDS011;30288;50.514;9.678;2022-12-24T08:24:32;32.03;;;4.60;;
29902;SDS011;30288;50.514;9.678;2022-12-24T08:26:37;23.45;;;4.55;;
29902;SDS011;30288;50.514;9.678;2022-12-24T08:28:43;19.98;;;3.50;;
29902;SDS011;30288;50.514;9.678;2022-12-24T08:30:48;23.65;;;4.57;;
29902;SDS011;30288;50.514;9.678;2022-12-24T08:32:54;20.40;;;3.50;;
29902;SDS011;30288;50.514;9.678;2022-12-24T08:35:02;18.80;;;3.67;;
29902;SDS011;30288;50.514;9.678;2022-12-24T08:37:08;14.10;;;3.17;;
29902;SDS011;30288;50.514;9.678;2022-12-24T08:39:13;18.85;;;3.10;;
29902;SDS011;30288;50.514;9.678;2022-12-24T08:41:18;21.73;;;4.03;;
29902;SDS011;30288;50.514;9.678;2022-12-24T08:43:24;18.65;;;3.45;;
29902;SDS011;30288;50.514;9.678;2022-12-24T08:45:30;17.55;;;3.30;;
29902;SDS011;30288;50.514;9.678;2022-12-24T08:47:41;20.63;;;3.55;;
29902;SDS011;30288;50.514;9.678;2022-12-24T08:49:47;16.38;;;3.33;;
29902;SDS011;30288;50.514;9.678;2022-12-24T08:51:55;21.90;;;3.70;;
29902;SDS011;30288;50.514;9.678;2022-12-24T08:54:00;17.85;;;3.10;;
29902;SDS011;30288;50.514;9.678;2022-12-24T08:56:06;14.32;;;2.88;;
29902;SDS011;30288;50.514;9.678;2022-12-24T08:58:13;14.60;;;3.13;;
29902;SDS011;30288;50.514;9.678;2022-12-24T09:00:18;12.98;;;2.72;;
29902;SDS011;30288;50.514;9.678;2022-12-24T09:02:24;19.75;;;3.05;;
29902;SDS011;30288;50.514;9.678;2022-12-24T09:04:29;15.57;;;3.75;;
29902;SDS011;30288;50.514;9.678;2022-12-24T09:06:34;16.42;;;3.90;;
29902;SDS011;30288;50.514;9.678;2022-12-24T09:08:43;19.02;;;3.10;;
29902;SDS011;30288;50.514;9.678;2022-12-24T09:10:48;13.88;;;3.20;;
29902;SDS011;30288;50.514;9.678;2022-12-24T09:12:53;14.90;;;3.38;;
29902;SDS011;30288;50.514;9.678;2022-12-24T09:14:58;17.08;;;2.80;;
29902;SDS011;30288;50.514;9.678;2022-12-24T09:17:04;13.75;;;2.45;;
29902;SDS011;30288;50.514;9.678;2022-12-24T09:19:10;15.95;;;3.50;;
29902;SDS011;30288;50.514;9.678;2022-12-24T09:21:15;18.38;;;2.85;;
29902;SDS011;30288;50.514;9.678;2022-12-24T09:23:20;17.25;;;3.05;;
29902;SDS011;30288;50.514;9.678;2022-12-24T09:25:28;15.38;;;3.58;;
29902;SDS011;30288;50.514;9.678;2022-12-24T09:27:33;16.08;;;3.05;;
29902;SDS011;30288;50.514;9.678;2022-12-24T09:29:38;13.57;;;2.20;;
29902;SDS011;30288;50.514;9.678;2022-12-24T09:31:43;13.60;;;2.75;;
29902;SDS011;30288;50.514;9.678;2022-12-24T09:33:50;9.75;;;2.20;;
29902;SDS011;30288;50.514;9.678;2022-12-24T09:35:55;18.90;;;4.32;;
29902;SDS011;30288;50.514;9.678;2022-12-24T09:38:01;15.68;;;2.30;;
29902;SDS011;30288;50.514;9.678;2022-12-24T09:40:06;14.98;;;2.95;;
29902;SDS011;30288;50.514;9.678;2022-12-24T09:42:34;11.35;;;3.00;;
29902;SDS011;30288;50.514;9.678;2022-12-24T09:44:53;11.13;;;2.55;;
29902;SDS011;30288;50.514;9.678;2022-12-24T09:47:08;14.70;;;3.20;;
29902;SDS011;30288;50.514;9.678;2022-12-24T09:49:22;19.42;;;3.63;;
29902;SDS011;30288;50.514;9.678;2022-12-24T09:51:33;16.48;;;3.15;;
29902;SDS011;30288;50.514;9.678;2022-12-24T09:53:43;15.15;;;3.45;;
29902;SDS011;30288;50.514;9.678;2022-12-24T09:55:55;15.68;;;4.35;;
29902;SDS011;30288;50.514;9.678;2022-12-24T09:58:09;15.18;;;3.50;;
29902;SDS011;30288;50.514;9.678;2022-12-24T10:00:26;23.33;;;3.88;;
29902;SDS011;30288;50.514;9.678;2022-12-24T10:02:33;17.05;;;4.22;;
29902;SDS011;30288;50.514;9.678;2022-12-24T10:04:39;19.63;;;3.72;;
29902;SDS011;30288;50.514;9.678;2022-12-24T10:06:47;23.20;;;5.32;;
29902;SDS011;30288;50.514;9.678;2022-12-24T10:09:01;15.30;;;3.92;;
29902;SDS011;30288;50.514;9.678;2022-12-24T10:11:18;22.17;;;4.40;;
29902;SDS011;30288;50.514;9.678;2022-12-24T10:13:37;23.55;;;4.50;;
29902;SDS011;30288;50.514;9.678;2022-12-24T10:15:58;23.90;;;3.88;;
29902;SDS011;30288;50.514;9.678;2022-12-24T10:18:14;21.63;;;4.38;;
29902;SDS011;30288;50.514;9.678;2022-12-24T10:20:35;18.80;;;4.35;;
29902;SDS011;30288;50.514;9.678;2022-12-24T10:22:50;20.08;;;5.22;;
29902;SDS011;30288;50.514;9.678;2022-12-24T10:25:03;27.00;;;4.68;;
29902;SDS011;30288;50.514;9.678;2022-12-24T10:27:21;23.77;;;3.88;;
29902;SDS011;30288;50.514;9.678;2022-12-24T10:29:36;25.10;;;4.97;;
29902;SDS011;30288;50.514;9.678;2022-12-24T10:31:49;21.13;;;3.92;;
29902;SDS011;30288;50.514;9.678;2022-12-24T10:34:00;20.83;;;3.90;;
29902;SDS011;30288;50.514;9.678;2022-12-24T10:36:10;23.05;;;5.38;;
29902;SDS011;30288;50.514;9.678;2022-12-24T10:38:20;17.63;;;4.05;;
29902;SDS011;30288;50.514;9.678;2022-12-24T10:40:27;18.95;;;4.35;;
29902;SDS011;30288;50.514;9.678;2022-12-24T10:42:40;16.42;;;4.57;;
29902;SDS011;30288;50.514;9.678;2022-12-24T10:44:55;22.17;;;3.63;;
29902;SDS011;30288;50.514;9.678;2022-12-24T10:47:06;23.05;;;4.10;;
29902;SDS011;30288;50.514;9.678;2022-12-24T10:49:14;18.88;;;3.80;;
29902;SDS011;30288;50.514;9.678;2022-12-24T10:51:24;26.08;;;3.85;;
29902;SDS011;30288;50.514;9.678;2022-12-24T10:53:39;18.02;;;3.15;;
29902;SDS011;30288;50.514;9.678;2022-12-24T10:55:48;24.15;;;4.20;;
29902;SDS011;30288;50.514;9.678;2022-12-24T10:57:58;25.63;;;4.07;;
29902;SDS011;30288;50.514;9.678;2022-12-24T11:00:17;22.10;;;4.45;;
29902;SDS011;30288;50.514;9.678;2022-12-24T11:02:33;24.65;;;3.88;;
29902;SDS011;30288;50.514;9.678;2022-12-24T11:04:44;20.70;;;5.03;;
29902;SDS011;30288;50.514;9.678;2022-12-24T11:06:54;16.17;;;3.63;;
29902;SDS011;30288;50.514;9.678;2022-12-24T11:09:11;18.38;;;4.53;;
29902;SDS011;30288;50.514;9.678;2022-12-24T11:11:26;17.95;;;3.63;;
29902;SDS011;30288;50.514;9.678;2022-12-24T11:13:38;25.52;;;4.47;;
29902;SDS011;30288;50.514;9.678;2022-12-24T11:15:49;16.23;;;3.45;;
29902;SDS011;30288;50.514;9.678;2022-12-24T11:18:04;18.73;;;4.63;;
29902;SDS011;30288;50.514;9.678;2022-12-24T11:20:16;19.92;;;3.53;;
29902;SDS011;30288;50.514;9.678;2022-12-24T11:22:26;16.67;;;3.97;;
29902;SDS011;30288;50.514;9.678;2022-12-24T11:24:34;18.20;;;3.33;;
29902;SDS011;30288;50.514;9.678;2022-12-24T11:26:50;15.55;;;3.25;;
29902;SDS011;30288;50.514;9.678;2022-12-24T11:29:05;14.60;;;3.20;;
29902;SDS011;30288;50.514;9.678;2022-12-24T11:31:20;17.40;;;3.17;;
29902;SDS011;30288;50.514;9.678;2022-12-24T11:33:27;15.88;;;3.03;;
29902;SDS011;30288;50.514;9.678;2022-12-24T11:35:38;16.70;;;3.05;;
29902;SDS011;30288;50.514;9.678;2022-12-24T11:37:48;21.02;;;4.53;;
29902;SDS011;30288;50.514;9.678;2022-12-24T11:40:18;15.55;;;3.08;;
29902;SDS011;30288;50.514;9.678;2022-12-24T11:42:29;14.43;;;2.55;;
29902;SDS011;30288;50.514;9.678;2022-12-24T11:44:38;16.20;;;3.83;;
29902;SDS011;30288;50.514;9.678;2022-12-24T11:46:55;17.10;;;2.83;;
29902;SDS011;30288;50.514;9.678;2022-12-24T11:49:12;16.08;;;3.40;;
29902;SDS011;30288;50.514;9.678;2022-12-24T11:51:26;20.02;;;3.78;;
29902;SDS011;30288;50.514;9.678;2022-12-24T11:53:33;20.30;;;4.05;;
29902;SDS011;30288;50.514;9.678;2022-12-24T11:57:54;20.90;;;2.83;;
29902;SDS011;30288;50.514;9.678;2022-12-24T12:00:04;19.83;;;3.42;;
29902;SDS011;30288;50.514;9.678;2022-12-24T12:02:17;24.63;;;3.78;;
29902;SDS011;30288;50.514;9.678;2022-12-24T12:04:27;19.60;;;3.72;;
29902;SDS011;30288;50.514;9.678;2022-12-24T12:06:36;20.30;;;4.05;;
29902;SDS011;30288;50.514;9.678;2022-12-24T12:08:46;17.40;;;3.47;;
29902;SDS011;30288;50.514;9.678;2022-12-24T12:10:53;17.83;;;3.60;;
29902;SDS011;30288;50.514;9.678;2022-12-24T12:13:02;22.40;;;3.78;;
29902;SDS011;30288;50.514;9.678;2022-12-24T12:15:17;20.10;;;3.92;;
29902;SDS011;30288;50.514;9.678;2022-12-24T12:17:31;14.40;;;3.10;;
29902;SDS011;30288;50.514;9.678;2022-12-24T12:19:41;16.17;;;2.95;;
29902;SDS011;30288;50.514;9.678;2022-12-24T12:21:52;20.98;;;3.67;;
29902;SDS011;30288;50.514;9.678;2022-12-24T12:23:57;17.13;;;3.58;;
29902;SDS011;30288;50.514;9.678;2022-12-24T12:26:09;16.15;;;3.25;;
29902;SDS011;30288;50.514;9.678;2022-12-24T12:28:19;20.60;;;3.72;;
29902;SDS011;30288;50.514;9.678;2022-12-24T12:30:26;19.70;;;4.28;;
29902;SDS011;30288;50.514;9.678;2022-12-24T12:32:38;20.33;;;3.78;;
29902;SDS011;30288;50.514;9.678;2022-12-24T12:34:51;23.50;;;3.72;;
29902;SDS011;30288;50.514;9.678;2022-12-24T12:37:07;17.40;;;4.85;;
29902;SDS011;30288;50.514;9.678;2022-12-24T12:39:17;17.95;;;3.55;;
29902;SDS011;30288;50.514;9.678;2022-12-24T12:41:38;18.85;;;3.72;;
29902;SDS011;30288;50.514;9.678;2022-12-24T12:46:50;18.77;;;3.28;;
29902;SDS011;30288;50.514;9.678;2022-12-24T12:49:21;21.25;;;4.18;;
29902;SDS011;30288;50.514;9.678;2022-12-24T12:51:41;16.38;;;2.97;;
29902;SDS011;30288;50.514;9.678;2022-12-24T12:54:06;17.90;;;4.03;;
29902;SDS011;30288;50.514;9.678;2022-12-24T12:56:27;14.57;;;3.55;;
29902;SDS011;30288;50.514;9.678;2022-12-24T12:58:36;26.65;;;4.38;;
29902;SDS011;30288;50.514;9.678;2022-12-24T13:00:48;27.08;;;4.70;;